Time;durP1;ratioP1;P1;durP2;ratioP2;P2;SDS_P1;SDS_P2;PMS_P1;PMS_P2;Temp;Humidity;BMP_temperature;BMP_pressure;BME280_temperature;BME280_humidity;BME280_pressure;Samples;Min_cycle;Max_cycle;Signal;HPM_P1;HPM_P2
2021/05/10 00:01:16;;;;;;;2.45;0.63;;;26.70;90.60;;;;;;5106962;28;20020;-55
2021/05/10 00:03:43;;;;;;;3.90;0.40;;;26.70;90.60;;;;;;5124875;28;20027;-54
2021/05/10 00:06:10;;;;;;;5.85;0.60;;;26.70;90.70;;;;;;5124776;28;20308;-51
2021/05/10 00:08:37;;;;;;;4.38;0.50;;;26.70;90.70;;;;;;5124684;28;20052;-58
2021/05/10 00:11:04;;;;;;;5.28;1.38;;;26.70;90.70;;;;;;5124495;28;20016;-55
2021/05/10 00:13:31;;;;;;;8.82;1.50;;;26.70;90.70;;;;;;5124564;28;20023;-56
2021/05/10 00:15:58;;;;;;;9.82;1.45;;;26.70;90.80;;;;;;5124628;28;20023;-59
2021/05/10 00:18:24;;;;;;;7.40;2.42;;;26.70;90.80;;;;;;5124516;28;20031;-57
2021/05/10 00:20:51;;;;;;;6.80;2.50;;;26.60;90.80;;;;;;5124010;28;20034;-54
2021/05/10 00:23:18;;;;;;;10.68;2.25;;;26.60;90.90;;;;;;5124788;28;20084;-55
2021/05/10 00:25:45;;;;;;;8.15;1.50;;;26.60;90.90;;;;;;5110310;28;20020;-53
2021/05/10 00:28:13;;;;;;;4.88;0.93;;;26.60;91.00;;;;;;5128675;28;20019;-53
2021/05/10 00:30:40;;;;;;;8.30;1.45;;;26.60;91.00;;;;;;5128680;28;20015;-58
2021/05/10 00:33:08;;;;;;;9.20;1.90;;;26.60;91.10;;;;;;5127988;28;20034;-52
2021/05/10 00:35:35;;;;;;;7.68;2.20;;;26.60;91.20;;;;;;5127687;28;20023;-54
2021/05/10 00:38:03;;;;;;;6.70;1.90;;;26.60;91.20;;;;;;5127939;28;20051;-52
2021/05/10 00:40:34;;;;;;;6.13;1.20;;;26.60;91.10;;;;;;5127864;28;20038;-54
2021/05/10 00:43:01;;;;;;;8.43;1.25;;;26.60;91.00;;;;;;5127672;28;20363;-48
2021/05/10 00:45:28;;;;;;;6.15;1.17;;;26.60;91.10;;;;;;5127020;28;20093;-54
2021/05/10 00:47:56;;;;;;;9.35;7.10;;;26.60;91.20;;;;;;5127699;28;20024;-53
2021/05/10 00:50:24;;;;;;;8.52;3.58;;;26.50;91.20;;;;;;5127552;28;20363;-52
2021/05/10 00:52:51;;;;;;;4.07;2.00;;;26.50;91.30;;;;;;5127648;28;20023;-47
2021/05/10 00:55:18;;;;;;;5.13;2.03;;;26.60;91.30;;;;;;5127500;28;20019;-52
2021/05/10 00:58:06;;;;;;;8.90;1.70;;;26.50;91.40;;;;;;5109062;28;20039;-51
2021/05/10 01:00:43;;;;;;;8.27;1.98;;;26.50;91.60;;;;;;5126874;28;20028;-52
2021/05/10 01:03:10;;;;;;;4.68;1.20;;;26.40;91.60;;;;;;5127009;28;20390;-53
2021/05/10 01:05:37;;;;;;;8.88;1.15;;;26.40;91.50;;;;;;5126934;28;20091;-49
2021/05/10 01:08:06;;;;;;;6.70;1.00;;;26.40;91.40;;;;;;5109003;28;20047;-49
2021/05/10 01:10:33;;;;;;;3.85;0.88;;;26.40;91.50;;;;;;5091826;28;20027;-47
2021/05/10 01:13:02;;;;;;;12.93;1.20;;;26.40;91.60;;;;;;5127124;28;20035;-55
2021/05/10 01:15:32;;;;;;;13.25;0.90;;;26.30;91.70;;;;;;5108365;28;20106;-52
2021/05/10 01:17:59;;;;;;;5.85;0.85;;;26.40;91.80;;;;;;5127387;28;20023;-54
2021/05/10 01:20:28;;;;;;;9.65;1.10;;;26.30;91.80;;;;;;5126861;28;20046;-46
2021/05/10 01:22:57;;;;;;;7.60;0.82;;;26.30;91.90;;;;;;5126873;28;20020;-50
2021/05/10 01:25:30;;;;;;;13.57;1.65;;;26.30;91.90;;;;;;5126486;28;20367;-51
2021/05/10 01:27:59;;;;;;;8.80;0.90;;;26.30;91.90;;;;;;5125341;28;20042;-52
2021/05/10 01:30:35;;;;;;;11.05;0.95;;;26.30;91.80;;;;;;5126573;28;20069;-50
2021/05/10 01:33:03;;;;;;;7.28;0.80;;;26.30;91.80;;;;;;5126899;28;20027;-50
2021/05/10 01:35:38;;;;;;;5.35;0.70;;;26.30;91.80;;;;;;5108152;28;20024;-55
2021/05/10 01:38:08;;;;;;;6.28;1.08;;;26.30;91.80;;;;;;5108718;28;20358;-50
2021/05/10 01:40:36;;;;;;;7.38;0.77;;;26.20;92.00;;;;;;5125137;28;20030;-47
2021/05/10 01:43:04;;;;;;;6.07;0.68;;;26.20;92.00;;;;;;5108564;28;20080;-49
2021/05/10 01:45:31;;;;;;;7.40;0.63;;;26.20;92.00;;;;;;5126328;28;20079;-49
2021/05/10 01:48:06;;;;;;;12.40;0.88;;;26.20;92.00;;;;;;5126152;28;20065;-50
2021/05/10 01:50:34;;;;;;;7.15;0.80;;;26.20;92.10;;;;;;5125584;28;20223;-52
2021/05/10 01:53:03;;;;;;;7.07;0.75;;;26.20;92.20;;;;;;5126668;28;20034;-54
2021/05/10 01:55:30;;;;;;;4.85;0.55;;;26.20;92.10;;;;;;5125868;28;20100;-57
2021/05/10 01:57:58;;;;;;;5.97;0.70;;;26.20;92.10;;;;;;5125769;28;20027;-51
2021/05/10 02:00:31;;;;;;;10.57;0.82;;;26.30;92.00;;;;;;5125407;28;20020;-56
2021/05/10 02:03:08;;;;;;;2.70;0.35;;;26.30;92.00;;;;;;5118714;28;20331;-53
2021/05/10 02:05:36;;;;;;;11.50;1.13;;;26.30;92.00;;;;;;5126207;28;20028;-58
2021/05/10 02:08:06;;;;;;;10.10;0.73;;;26.30;92.20;;;;;;5125914;28;20047;-55
2021/05/10 02:10:38;;;;;;;5.80;0.70;;;26.30;92.20;;;;;;5125703;28;20355;-55
2021/05/10 02:13:25;;;;;;;5.03;0.80;;;26.30;92.30;;;;;;5124819;28;20036;-55
2021/05/10 02:15:57;;;;;;;9.43;0.70;;;26.30;92.30;;;;;;5126102;28;20019;-52
2021/05/10 02:18:25;;;;;;;;;;;26.30;92.50;;;;;;5126450;28;20072;-52
2021/05/10 02:20:52;;;;;;;7.10;0.70;;;26.30;92.60;;;;;;5125728;28;19900;-55
2021/05/10 02:23:25;;;;;;;13.43;1.38;;;26.30;92.70;;;;;;5107785;28;20045;-54
2021/05/10 02:25:55;;;;;;;5.10;1.35;;;26.30;92.70;;;;;;5125272;28;20015;-61
2021/05/10 02:28:26;;;;;;;9.25;1.40;;;26.30;92.60;;;;;;5125131;28;20038;-52
2021/05/10 02:30:54;;;;;;;10.82;1.60;;;26.30;92.60;;;;;;5125170;28;20027;-55
2021/05/10 02:33:25;;;;;;;4.80;1.20;;;26.30;92.60;;;;;;5125549;28;20035;-57
2021/05/10 02:35:54;;;;;;;9.52;1.77;;;26.30;92.60;;;;;;5125621;28;20065;-60
2021/05/10 02:38:24;;;;;;;8.65;1.10;;;26.30;92.60;;;;;;5107647;28;20087;-52
2021/05/10 02:40:51;;;;;;;8.18;1.23;;;26.30;92.70;;;;;;5125046;28;20061;-52
2021/05/10 02:43:19;;;;;;;5.72;0.82;;;26.30;92.70;;;;;;5125526;28;20031;-52
2021/05/10 02:45:46;;;;;;;5.95;0.90;;;26.30;92.70;;;;;;5125318;28;20087;-51
2021/05/10 02:48:14;;;;;;;9.00;0.70;;;26.30;92.70;;;;;;5124418;28;20269;-51
2021/05/10 02:50:41;;;;;;;5.03;0.80;;;26.30;92.80;;;;;;5125269;28;20315;-52
2021/05/10 02:53:07;;;;;;;3.65;0.75;;;26.30;92.80;;;;;;5125509;28;20100;-52
2021/05/10 02:55:34;;;;;;;11.35;1.08;;;26.30;92.90;;;;;;5123626;28;20103;-50
2021/05/10 02:58:01;;;;;;;6.97;0.82;;;26.30;93.00;;;;;;5125078;28;20073;-52
2021/05/10 03:00:29;;;;;;;10.68;0.90;;;26.30;93.10;;;;;;5124636;28;20024;-53
2021/05/10 03:02:56;;;;;;;7.82;0.90;;;26.30;93.20;;;;;;5124611;28;20032;-55
2021/05/10 03:05:24;;;;;;;5.28;0.60;;;26.30;93.20;;;;;;5124445;28;20041;-51
2021/05/10 03:07:51;;;;;;;9.82;1.00;;;26.30;93.30;;;;;;5124403;28;20039;-50
2021/05/10 03:10:20;;;;;;;9.63;1.35;;;26.30;93.40;;;;;;5123764;28;20037;-53
2021/05/10 03:12:48;;;;;;;7.35;0.90;;;26.30;93.30;;;;;;5124400;28;20051;-52
2021/05/10 03:15:17;;;;;;;12.00;1.08;;;26.30;93.40;;;;;;5124321;28;20020;-53
2021/05/10 03:17:44;;;;;;;8.85;1.00;;;26.30;93.60;;;;;;5124356;28;20087;-48
2021/05/10 03:20:17;;;;;;;4.32;0.70;;;26.30;93.60;;;;;;5124828;28;20109;-48
2021/05/10 03:22:44;;;;;;;4.35;0.55;;;26.30;93.60;;;;;;5123932;28;20360;-53
2021/05/10 03:25:12;;;;;;;7.28;0.60;;;26.30;93.60;;;;;;5124150;28;20019;-55
2021/05/10 03:27:40;;;;;;;8.20;0.70;;;26.30;93.80;;;;;;5124120;28;20030;-55
2021/05/10 03:30:13;;;;;;;7.95;0.70;;;26.30;93.80;;;;;;5124284;28;20020;-55
2021/05/10 03:32:40;;;;;;;8.45;1.30;;;26.30;93.80;;;;;;5124470;28;20019;-59
2021/05/10 03:35:09;;;;;;;7.57;1.17;;;26.30;93.90;;;;;;5124342;28;20024;-55
2021/05/10 03:37:36;;;;;;;15.68;1.30;;;26.30;94.00;;;;;;5124130;28;20373;-58
2021/05/10 03:40:07;;;;;;;14.30;1.83;;;26.20;94.10;;;;;;5123642;28;20212;-54
2021/05/10 03:42:34;;;;;;;10.52;1.48;;;26.20;94.10;;;;;;5124039;28;20046;-55
2021/05/10 03:45:01;;;;;;;8.13;1.10;;;26.20;94.20;;;;;;5124112;28;20068;-53
2021/05/10 03:47:39;;;;;;;6.78;1.15;;;26.30;94.20;;;;;;5123928;28;20019;-51
2021/05/10 03:50:17;;;;;;;4.85;0.80;;;26.20;94.20;;;;;;5123472;28;20312;-52
2021/05/10 03:52:45;;;;;;;7.72;1.25;;;26.20;94.30;;;;;;5123556;28;20024;-52
2021/05/10 03:55:14;;;;;;;6.68;1.40;;;26.20;94.30;;;;;;5106399;28;20099;-59
2021/05/10 03:57:42;;;;;;;5.95;1.30;;;26.20;94.20;;;;;;5123870;28;20068;-53
2021/05/10 04:00:10;;;;;;;6.43;1.35;;;26.20;94.30;;;;;;5129466;28;20327;-53
2021/05/10 04:02:37;;;;;;;6.45;1.52;;;26.20;94.50;;;;;;5130802;28;20038;-50
2021/05/10 04:15:19;;;;;;;5.45;1.33;;;26.20;94.30;;;;;;5130834;28;20026;-53
2021/05/10 04:17:46;;;;;;;5.18;1.02;;;26.20;94.40;;;;;;5130748;28;20031;-52
2021/05/10 04:20:13;;;;;;;7.20;1.08;;;26.20;94.30;;;;;;5130971;28;20031;-57
2021/05/10 04:22:39;;;;;;;5.90;0.90;;;26.20;94.20;;;;;;5130690;28;20015;-58
2021/05/10 04:25:10;;;;;;;5.15;0.90;;;26.10;94.20;;;;;;5130567;28;20279;-53
2021/05/10 04:27:36;;;;;;;7.53;0.98;;;26.10;94.20;;;;;;5130850;28;20075;-48
2021/05/10 04:30:04;;;;;;;5.93;1.23;;;26.10;94.20;;;;;;5130709;28;20031;-53
2021/05/10 04:32:31;;;;;;;4.57;0.90;;;26.10;94.20;;;;;;5130693;28;20011;-56
2021/05/10 04:34:58;;;;;;;6.20;0.82;;;26.10;94.20;;;;;;5130574;28;20074;-51
2021/05/10 04:37:24;;;;;;;5.63;0.82;;;26.10;94.20;;;;;;5130695;28;20082;-55
2021/05/10 04:39:51;;;;;;;4.97;0.80;;;26.10;94.20;;;;;;5130546;28;20279;-52
2021/05/10 04:42:18;;;;;;;4.43;0.82;;;26.10;94.20;;;;;;5130359;28;20242;-56
2021/05/10 04:44:44;;;;;;;8.30;0.80;;;26.10;94.20;;;;;;5130482;28;20024;-54
2021/05/10 04:47:11;;;;;;;4.28;0.93;;;26.10;94.20;;;;;;5130378;28;20030;-53
2021/05/10 04:49:37;;;;;;;5.80;1.50;;;26.10;94.10;;;;;;5131039;28;20049;-52
2021/05/10 04:52:04;;;;;;;5.82;3.22;;;26.10;94.00;;;;;;5130585;28;20064;-54
2021/05/10 04:54:31;;;;;;;7.70;2.25;;;26.00;94.00;;;;;;5130510;28;20030;-53
2021/05/10 04:56:57;;;;;;;8.30;2.03;;;26.00;94.00;;;;;;5130726;28;20051;-55
2021/05/10 04:59:24;;;;;;;5.05;1.63;;;26.00;94.00;;;;;;5130836;28;20030;-53
2021/05/10 05:01:50;;;;;;;5.50;1.27;;;26.00;94.00;;;;;;5130217;28;20054;-51
2021/05/10 05:04:17;;;;;;;7.85;1.02;;;26.00;94.00;;;;;;5130664;28;20101;-51
2021/05/10 05:06:44;;;;;;;7.50;1.00;;;26.00;94.00;;;;;;5130029;28;20090;-53
2021/05/10 05:09:11;;;;;;;9.32;1.40;;;26.00;94.00;;;;;;5130785;28;20031;-56
2021/05/10 05:11:37;;;;;;;5.53;1.75;;;26.00;94.00;;;;;;5126557;28;20012;-52
2021/05/10 05:14:04;;;;;;;8.07;1.27;;;26.00;94.00;;;;;;5127500;28;20027;-52
2021/05/10 05:16:31;;;;;;;8.40;1.23;;;26.00;94.20;;;;;;5126874;28;20039;-51
2021/05/10 05:18:58;;;;;;;3.45;0.85;;;26.00;94.10;;;;;;5127045;28;20038;-57
2021/05/10 05:21:24;;;;;;;6.07;0.82;;;26.00;94.10;;;;;;5127172;28;20283;-49
2021/05/10 05:23:51;;;;;;;4.78;0.98;;;25.90;94.00;;;;;;5126901;28;20019;-53
2021/05/10 05:26:18;;;;;;;5.28;1.20;;;25.90;94.00;;;;;;5126851;28;20008;-52
2021/05/10 05:28:44;;;;;;;8.77;1.13;;;25.90;94.00;;;;;;5127455;28;20066;-52
2021/05/10 05:31:11;;;;;;;7.80;0.90;;;25.90;94.00;;;;;;5126641;28;20078;-57
2021/05/10 05:33:37;;;;;;;7.38;1.65;;;25.90;94.10;;;;;;5127078;28;20034;-55
2021/05/10 05:36:05;;;;;;;4.53;1.13;;;25.90;94.00;;;;;;5126951;28;20019;-52
2021/05/10 05:38:35;;;;;;;5.50;1.20;;;25.90;94.00;;;;;;5126625;28;20106;-58
2021/05/10 05:41:02;;;;;;;8.43;1.00;;;25.90;94.00;;;;;;5126465;28;20027;-58
2021/05/10 05:43:29;;;;;;;7.63;0.98;;;25.90;94.00;;;;;;5126487;28;20034;-54
2021/05/10 05:45:55;;;;;;;4.05;0.93;;;25.90;94.00;;;;;;5126530;28;20035;-54
2021/05/10 05:48:22;;;;;;;9.23;0.90;;;25.90;94.00;;;;;;5127045;28;20023;-56
2021/05/10 05:50:49;;;;;;;9.48;1.38;;;25.90;94.00;;;;;;5126402;28;20022;-57
2021/05/10 05:53:16;;;;;;;11.05;1.13;;;25.80;94.00;;;;;;5126341;28;20041;-53
2021/05/10 05:55:42;;;;;;;3.97;0.80;;;25.80;93.90;;;;;;5126809;28;20339;-51
2021/05/10 05:58:09;;;;;;;7.90;0.75;;;25.80;93.90;;;;;;5126335;28;20104;-57
2021/05/10 06:00:36;;;;;;;5.43;0.73;;;25.90;94.00;;;;;;5125730;28;20064;-56
2021/05/10 06:03:02;;;;;;;4.72;0.80;;;25.80;94.00;;;;;;5126137;28;20028;-51
2021/05/10 06:05:29;;;;;;;6.38;0.82;;;25.80;94.00;;;;;;5126305;28;20023;-54
2021/05/10 06:07:56;;;;;;;4.00;0.70;;;25.80;94.00;;;;;;5125793;28;20101;-54
2021/05/10 06:10:25;;;;;;;6.72;0.70;;;25.80;94.00;;;;;;5126227;28;20095;-52
2021/05/10 06:12:53;;;;;;;7.88;1.23;;;25.80;94.00;;;;;;5126122;28;20023;-52
2021/05/10 06:15:22;;;;;;;8.65;0.63;;;25.80;94.00;;;;;;5126066;28;20248;-49
2021/05/10 06:17:50;;;;;;;9.10;0.90;;;25.80;93.90;;;;;;5126049;28;20331;-51
2021/05/10 06:20:18;;;;;;;3.70;0.88;;;25.80;93.90;;;;;;5125543;28;20073;-48
2021/05/10 06:22:45;;;;;;;7.07;0.88;;;25.80;93.90;;;;;;5125499;28;20020;-51
2021/05/10 06:25:15;;;;;;;6.43;0.90;;;25.80;94.00;;;;;;5125692;28;20079;-52
2021/05/10 06:27:42;;;;;;;6.25;0.80;;;25.80;94.00;;;;;;5107766;28;20035;-54
2021/05/10 06:30:10;;;;;;;9.05;0.75;;;25.80;94.00;;;;;;5125492;28;20019;-54
2021/05/10 06:32:38;;;;;;;13.15;1.20;;;25.80;94.00;;;;;;5125592;28;20023;-54
2021/05/10 06:35:05;;;;;;;6.32;0.60;;;25.70;94.00;;;;;;5126159;28;20016;-54
2021/05/10 06:37:32;;;;;;;8.18;0.73;;;25.70;93.90;;;;;;5125816;28;20078;-51
2021/05/10 06:39:59;;;;;;;6.47;0.80;;;25.70;94.00;;;;;;5125559;28;20023;-55
2021/05/10 06:42:27;;;;;;;9.07;0.80;;;25.70;94.00;;;;;;5125439;28;20030;-51
2021/05/10 06:44:55;;;;;;;8.10;0.80;;;25.70;94.00;;;;;;5124948;28;20270;-58
2021/05/10 06:47:22;;;;;;;4.50;0.50;;;25.70;94.10;;;;;;5125467;28;20019;-51
2021/05/10 06:49:48;;;;;;;4.53;0.77;;;25.80;94.10;;;;;;5126301;28;20087;-51
2021/05/10 06:52:15;;;;;;;4.45;0.55;;;25.80;94.10;;;;;;5125388;28;20020;-56
2021/05/10 06:54:42;;;;;;;9.88;0.70;;;25.70;94.10;;;;;;5125766;28;20303;-49
2021/05/10 06:57:08;;;;;;;2.42;0.50;;;25.70;94.10;;;;;;5125147;28;20023;-53
2021/05/10 06:59:37;;;;;;;4.20;0.57;;;25.70;94.10;;;;;;5125404;28;20087;-49
2021/05/10 07:02:04;;;;;;;5.45;0.40;;;25.70;94.00;;;;;;5125010;28;20019;-51
2021/05/10 07:04:30;;;;;;;6.35;0.60;;;25.70;94.10;;;;;;5125772;28;20027;-51
2021/05/10 07:06:57;;;;;;;4.13;0.70;;;25.70;94.10;;;;;;5124982;28;20039;-54
2021/05/10 07:09:23;;;;;;;5.78;0.57;;;25.70;94.10;;;;;;5125388;28;20028;-59
2021/05/10 07:11:50;;;;;;;7.70;0.55;;;25.70;94.10;;;;;;5125284;28;20026;-54
2021/05/10 07:14:17;;;;;;;5.93;0.50;;;25.70;94.00;;;;;;5124700;28;20052;-50
2021/05/10 07:16:43;;;;;;;1.77;0.40;;;25.70;94.00;;;;;;5125230;28;20073;-51
2021/05/10 07:19:10;;;;;;;3.78;0.40;;;25.70;94.00;;;;;;5125340;28;20035;-52
2021/05/10 07:21:37;;;;;;;5.50;0.60;;;25.70;94.00;;;;;;5124983;28;20025;-55
2021/05/10 07:24:04;;;;;;;3.08;0.25;;;25.70;94.00;;;;;;5125080;28;20036;-59
2021/05/10 07:26:31;;;;;;;5.47;0.60;;;25.70;94.00;;;;;;5124707;28;20214;-54
2021/05/10 07:29:00;;;;;;;3.30;0.50;;;25.70;94.00;;;;;;5125240;28;20035;-54
2021/05/10 07:31:27;;;;;;;4.90;0.30;;;25.70;94.00;;;;;;5125306;28;20020;-53
2021/05/10 07:33:54;;;;;;;4.65;0.50;;;25.60;94.00;;;;;;5124527;28;20083;-53
2021/05/10 07:36:20;;;;;;;2.53;0.68;;;25.70;94.00;;;;;;5125331;28;20018;-52
2021/05/10 07:38:47;;;;;;;2.63;0.40;;;25.70;94.00;;;;;;5124421;28;20109;-52
2021/05/10 07:41:13;;;;;;;4.78;0.60;;;25.70;94.10;;;;;;5124572;28;20015;-52
2021/05/10 07:43:40;;;;;;;5.10;0.80;;;25.70;94.10;;;;;;5124345;28;20054;-53
2021/05/10 07:46:07;;;;;;;5.10;0.50;;;25.60;94.10;;;;;;5124863;28;20012;-55
2021/05/10 07:48:34;;;;;;;7.45;0.77;;;25.60;94.10;;;;;;5124566;28;20251;-52
2021/05/10 07:51:01;;;;;;;6.32;0.65;;;25.60;94.20;;;;;;5124180;28;20019;-56
2021/05/10 07:53:27;;;;;;;4.93;1.23;;;25.60;94.20;;;;;;5124398;28;20035;-50
2021/05/10 07:55:54;;;;;;;4.80;1.02;;;25.60;94.20;;;;;;5124204;28;20015;-51
2021/05/10 07:58:22;;;;;;;5.97;0.88;;;25.60;94.30;;;;;;5124336;28;20066;-51
2021/05/10 08:00:53;;;;;;;6.90;1.45;;;25.60;94.30;;;;;;5124231;28;20024;-52
2021/05/10 08:03:21;;;;;;;7.63;1.70;;;25.60;94.30;;;;;;5124224;28;20197;-55
2021/05/10 08:05:48;;;;;;;6.50;1.50;;;25.60;94.40;;;;;;5124369;28;20039;-52
2021/05/10 08:08:17;;;;;;;5.47;1.00;;;25.60;94.40;;;;;;5124384;28;20070;-53
2021/05/10 08:10:46;;;;;;;4.10;0.90;;;25.60;94.40;;;;;;5124115;28;20024;-51
2021/05/10 08:13:13;;;;;;;5.50;0.70;;;25.60;94.30;;;;;;5124475;28;20027;-55
2021/05/10 08:15:39;;;;;;;4.43;1.00;;;25.60;94.30;;;;;;5124240;28;20034;-55
2021/05/10 08:18:06;;;;;;;6.18;1.15;;;25.60;94.40;;;;;;5124147;28;20027;-51
2021/05/10 08:20:33;;;;;;;4.05;0.95;;;25.50;94.40;;;;;;5124374;28;20088;-52
2021/05/10 08:23:00;;;;;;;5.13;0.90;;;25.50;94.30;;;;;;5124168;28;20038;-48
2021/05/10 08:25:26;;;;;;;4.70;1.02;;;25.50;94.30;;;;;;5123950;28;20234;-51
2021/05/10 08:27:53;;;;;;;3.88;0.90;;;25.50;94.30;;;;;;5124003;28;20024;-57
2021/05/10 08:30:20;;;;;;;4.55;0.95;;;25.50;94.30;;;;;;5124065;28;20027;-52
2021/05/10 08:32:47;;;;;;;4.85;0.70;;;25.50;94.30;;;;;;5124332;28;20168;-53
2021/05/10 08:35:14;;;;;;;5.75;0.80;;;25.50;94.30;;;;;;5124342;28;20015;-56
2021/05/10 08:37:40;;;;;;;4.10;0.70;;;25.50;94.20;;;;;;5124672;28;20024;-56
2021/05/10 08:40:07;;;;;;;3.38;0.50;;;25.50;94.20;;;;;;5124189;28;20048;-51
2021/05/10 08:42:35;;;;;;;2.13;0.57;;;25.50;94.30;;;;;;5124268;28;20019;-54
2021/05/10 08:45:01;;;;;;;3.22;0.60;;;25.50;94.30;;;;;;5124189;28;20015;-52
2021/05/10 08:47:35;;;;;;;8.85;1.23;;;25.50;94.30;;;;;;5127618;28;20071;-51
2021/05/10 08:50:05;;;;;;;5.75;0.90;;;25.50;94.30;;;;;;5127804;28;20015;-55
2021/05/10 08:52:34;;;;;;;2.75;0.73;;;25.50;94.40;;;;;;5127791;28;20149;-51
2021/05/10 08:55:02;;;;;;;5.28;1.20;;;25.50;94.30;;;;;;5127829;28;20028;-50
2021/05/10 08:57:28;;;;;;;4.93;1.13;;;25.50;94.30;;;;;;5127765;28;20245;-51
2021/05/10 08:59:55;;;;;;;4.20;1.00;;;25.50;94.40;;;;;;5127477;28;20042;-55
2021/05/10 09:02:34;;;;;;;4.15;0.85;;;25.40;94.30;;;;;;5127320;28;20064;-54
2021/05/10 09:05:19;;;;;;;5.70;0.88;;;25.40;94.40;;;;;;5127656;28;20031;-49
2021/05/10 09:08:07;;;;;;;4.15;0.77;;;25.50;94.50;;;;;;5127335;28;20063;-51
2021/05/10 09:10:34;;;;;;;4.22;0.75;;;25.50;94.40;;;;;;5127559;28;20078;-53
2021/05/10 09:13:01;;;;;;;3.40;0.70;;;25.40;94.60;;;;;;5127536;28;20031;-52
2021/05/10 09:15:30;;;;;;;6.82;0.90;;;25.40;94.50;;;;;;5127165;28;20020;-52
2021/05/10 09:18:02;;;;;;;5.57;0.80;;;25.40;94.40;;;;;;5127290;28;20055;-51
2021/05/10 09:20:30;;;;;;;;;;;25.40;94.40;;;;;;5127359;28;20091;-52
2021/05/10 09:22:59;;;;;;;2.85;0.57;;;25.40;94.40;;;;;;5127197;28;19920;-47
2021/05/10 09:25:37;;;;;;;6.30;0.90;;;25.30;94.40;;;;;;5127333;28;20054;-54
2021/05/10 09:28:20;;;;;;;4.35;0.80;;;25.40;94.60;;;;;;5127207;28;20035;-51
2021/05/10 09:30:47;;;;;;;;;;;25.40;94.50;;;;;;5128086;28;20042;-50
2021/05/10 09:33:23;;;;;;;7.40;1.17;;;25.40;94.50;;;;;;5126834;28;19950;-53
2021/05/10 09:35:51;;;;;;;3.42;0.77;;;25.40;94.60;;;;;;5127158;28;20045;-48
2021/05/10 09:38:24;;;;;;;1.77;0.65;;;25.30;94.60;;;;;;5126943;28;20031;-57
2021/05/10 09:40:53;;;;;;;3.35;0.98;;;25.30;94.60;;;;;;5126648;28;20474;-50
2021/05/10 09:43:27;;;;;;;3.88;1.05;;;25.30;94.60;;;;;;5126852;28;20042;-53
2021/05/10 09:45:57;;;;;;;5.55;1.10;;;25.30;94.60;;;;;;5126610;28;20012;-55
2021/05/10 09:48:29;;;;;;;2.70;0.50;;;25.30;94.60;;;;;;5126689;28;20023;-53
2021/05/10 09:51:03;;;;;;;6.35;0.82;;;25.30;94.50;;;;;;5126907;28;20043;-56
2021/05/10 09:53:32;;;;;;;2.38;0.80;;;25.30;94.50;;;;;;5126965;28;20285;-51
2021/05/10 09:56:00;;;;;;;4.93;0.57;;;25.30;94.40;;;;;;5126988;28;20208;-58
2021/05/10 09:58:37;;;;;;;2.97;0.60;;;25.30;94.40;;;;;;5126210;28;20023;-55
2021/05/10 10:01:04;;;;;;;3.42;0.80;;;25.30;94.50;;;;;;5126384;28;20202;-48
2021/05/10 10:03:37;;;;;;;1.98;0.68;;;25.30;94.50;;;;;;5126421;28;20022;-45
2021/05/10 10:06:09;;;;;;;3.75;0.60;;;25.30;94.50;;;;;;5125993;28;20189;-48
2021/05/10 10:08:37;;;;;;;3.20;0.50;;;25.30;94.50;;;;;;5126361;28;20078;-46
2021/05/10 10:11:08;;;;;;;2.05;0.57;;;25.30;94.50;;;;;;5125921;28;20047;-49
2021/05/10 10:13:36;;;;;;;4.75;0.90;;;25.30;94.40;;;;;;5126275;28;20292;-52
2021/05/10 10:16:04;;;;;;;4.07;0.95;;;25.30;94.40;;;;;;5126048;28;20194;-50
2021/05/10 10:18:32;;;;;;;4.28;1.00;;;25.30;94.40;;;;;;5126133;28;20087;-52
2021/05/10 10:21:00;;;;;;;2.72;0.65;;;25.30;94.40;;;;;;5126049;28;20338;-56
2021/05/10 10:23:28;;;;;;;2.13;0.82;;;25.30;94.40;;;;;;5126188;28;20073;-55
2021/05/10 10:25:57;;;;;;;3.45;0.60;;;25.30;94.50;;;;;;5125488;28;20019;-49
2021/05/10 10:28:26;;;;;;;0.82;0.35;;;25.30;94.40;;;;;;5125978;28;20019;-49
2021/05/10 10:31:08;;;;;;;3.05;0.50;;;25.30;94.50;;;;;;5126165;28;20185;-51
2021/05/10 10:33:50;;;;;;;3.35;0.82;;;25.20;94.40;;;;;;5126387;28;20027;-55
2021/05/10 10:36:32;;;;;;;2.83;0.93;;;25.20;94.40;;;;;;5125869;28;20027;-52
2021/05/10 10:39:22;;;;;;;2.33;0.40;;;25.20;94.50;;;;;;5126228;28;20027;-50
2021/05/10 10:42:12;;;;;;;2.80;0.55;;;25.20;94.50;;;;;;5125844;28;20024;-51
2021/05/10 10:44:42;;;;;;;2.25;0.63;;;25.30;94.50;;;;;;5125966;28;20015;-50
2021/05/10 10:47:11;;;;;;;3.08;0.63;;;25.20;94.40;;;;;;5126188;28;20043;-52
2021/05/10 10:49:43;;;;;;;6.65;0.93;;;25.20;94.40;;;;;;5126329;28;20248;-53
2021/05/10 10:52:24;;;;;;;3.40;0.63;;;25.20;94.40;;;;;;5125292;28;20027;-48
2021/05/10 10:55:38;;;;;;;1.98;0.60;;;25.20;94.40;;;;;;5126083;28;20265;-51
2021/05/10 10:58:20;;;;;;;4.88;0.50;;;25.20;94.40;;;;;;5122666;28;20094;-56
2021/05/10 11:01:18;;;;;;;1.08;0.50;;;25.20;94.40;;;;;;5124985;28;20034;-54
2021/05/10 11:03:46;;;;;;;2.80;0.30;;;25.20;94.30;;;;;;5125554;28;20031;-59
2021/05/10 11:06:13;;;;;;;1.77;0.50;;;25.20;94.40;;;;;;5125202;28;20057;-52
2021/05/10 11:08:55;;;;;;;2.83;0.63;;;25.20;94.40;;;;;;5124396;28;20112;-54
2021/05/10 11:11:30;;;;;;;1.05;0.40;;;25.10;94.30;;;;;;5125426;28;20046;-57
2021/05/10 11:13:59;;;;;;;2.30;0.30;;;25.20;94.30;;;;;;5125490;28;20045;-51
2021/05/10 11:16:53;;;;;;;0.90;0.28;;;25.10;94.30;;;;;;5124995;28;20039;-55
2021/05/10 11:19:37;;;;;;;1.08;0.28;;;25.10;94.30;;;;;;5125043;28;20058;-55
2021/05/10 11:22:30;;;;;;;0.63;0.30;;;25.10;94.30;;;;;;5125091;28;20141;-54
2021/05/10 11:24:57;;;;;;;1.88;0.35;;;25.10;94.30;;;;;;5124706;28;20035;-58
2021/05/10 11:27:32;;;;;;;2.70;0.35;;;25.10;94.30;;;;;;5124990;28;20019;-51
2021/05/10 11:29:59;;;;;;;0.68;0.20;;;25.10;94.30;;;;;;5124668;28;20023;-54
2021/05/10 11:32:31;;;;;;;0.63;0.20;;;25.10;94.30;;;;;;5124738;28;20368;-54
2021/05/10 11:35:25;;;;;;;1.67;0.40;;;25.10;94.30;;;;;;5124610;28;20027;-48
2021/05/10 11:38:00;;;;;;;1.05;0.35;;;25.10;94.30;;;;;;5125006;28;20249;-52
2021/05/10 11:40:26;;;;;;;3.35;0.80;;;25.10;94.30;;;;;;5125038;28;20051;-52
2021/05/10 11:42:53;;;;;;;1.80;0.60;;;25.10;94.30;;;;;;5124691;28;20040;-52
2021/05/10 11:45:20;;;;;;;2.47;0.50;;;25.10;94.30;;;;;;5124531;28;20089;-52
2021/05/10 11:47:48;;;;;;;0.95;0.50;;;25.10;94.40;;;;;;5124654;28;20098;-51
2021/05/10 11:50:14;;;;;;;2.78;0.93;;;25.10;94.40;;;;;;5124270;28;20024;-51
2021/05/10 11:52:41;;;;;;;2.00;0.60;;;25.10;94.40;;;;;;5124517;28;20250;-54
2021/05/10 11:55:10;;;;;;;4.00;1.55;;;25.10;94.40;;;;;;5106583;28;20032;-56
2021/05/10 11:57:41;;;;;;;3.20;0.95;;;25.10;94.40;;;;;;5124167;28;20019;-52
2021/05/10 12:00:14;;;;;;;1.25;0.55;;;25.10;94.40;;;;;;5124447;28;20028;-50
2021/05/10 12:02:43;;;;;;;2.58;0.63;;;25.10;94.40;;;;;;5124109;28;20212;-53
2021/05/10 12:05:11;;;;;;;1.02;0.60;;;25.10;94.40;;;;;;5124122;28;20019;-52
2021/05/10 12:07:38;;;;;;;2.45;0.68;;;25.10;94.40;;;;;;5124665;28;20047;-53
2021/05/10 12:10:07;;;;;;;1.42;1.00;;;25.10;94.40;;;;;;5124192;28;20022;-52
2021/05/10 12:12:39;;;;;;;1.10;0.40;;;25.10;94.40;;;;;;5124526;28;20022;-51
2021/05/10 12:15:13;;;;;;;1.02;0.40;;;25.10;94.40;;;;;;5124205;28;20304;-54
2021/05/10 12:17:44;;;;;;;2.03;0.40;;;25.10;94.50;;;;;;5124405;28;20088;-58
2021/05/10 12:20:11;;;;;;;2.55;0.60;;;25.10;94.50;;;;;;5124879;28;20220;-54
2021/05/10 12:22:49;;;;;;;3.80;0.30;;;25.10;94.50;;;;;;5128092;28;20065;-54
2021/05/10 12:25:30;;;;;;;0.22;0.20;;;25.10;94.50;;;;;;5127926;28;20037;-54
2021/05/10 12:28:06;;;;;;;0.77;0.30;;;25.10;94.50;;;;;;5128222;28;20083;-53
2021/05/10 12:30:34;;;;;;;0.63;0.30;;;25.10;94.50;;;;;;5127920;28;20028;-52
2021/05/10 12:33:04;;;;;;;0.85;0.20;;;25.10;94.60;;;;;;5128248;28;20034;-54
2021/05/10 12:35:45;;;;;;;1.08;0.30;;;25.10;94.50;;;;;;5127869;28;20353;-56
2021/05/10 12:38:11;;;;;;;1.35;0.50;;;25.20;94.60;;;;;;5128095;28;20353;-55
2021/05/10 12:40:45;;;;;;;3.15;0.77;;;25.20;94.60;;;;;;5127498;28;20054;-55
2021/05/10 12:43:20;;;;;;;5.05;0.60;;;25.20;94.80;;;;;;5127790;28;20047;-55
2021/05/10 12:46:01;;;;;;;2.05;0.30;;;25.10;94.90;;;;;;5123547;28;20091;-59
2021/05/10 12:48:29;;;;;;;1.58;0.65;;;25.10;95.00;;;;;;5119030;28;20043;-59
2021/05/10 12:51:09;;;;;;;0.75;0.40;;;25.10;95.00;;;;;;5127716;28;20024;-54
2021/05/10 12:53:38;;;;;;;4.72;0.50;;;25.00;95.00;;;;;;5127975;28;20038;-53
2021/05/10 12:56:07;;;;;;;2.00;0.40;;;25.10;95.10;;;;;;5127866;28;20330;-60
2021/05/10 12:58:39;;;;;;;1.48;0.40;;;25.10;95.10;;;;;;5127306;28;20063;-53
2021/05/10 13:01:25;;;;;;;0.68;0.40;;;25.10;95.10;;;;;;5127582;28;20075;-50
2021/05/10 13:04:03;;;;;;;3.00;0.40;;;25.10;95.10;;;;;;5127749;28;20065;-52
2021/05/10 13:06:31;;;;;;;1.45;0.70;;;25.10;95.20;;;;;;5127954;28;20071;-52
2021/05/10 13:09:00;;;;;;;2.80;0.60;;;25.10;95.20;;;;;;5127993;28;20046;-52
2021/05/10 13:11:40;;;;;;;1.08;0.40;;;25.10;95.20;;;;;;5127333;28;20080;-53